Time;durP1;ratioP1;P1;durP2;ratioP2;P2;SDS_P1;SDS_P2;PMS_P1;PMS_P2;Temp;Humidity;BMP_temperature;BMP_pressure;BME280_temperature;BME280_humidity;BME280_pressure;Samples;Min_cycle;Max_cycle;Signal;HPM_P1;HPM_P2
2021/12/02 00:01:31;;;;;;;;;;;;;;;17.37;47.48;99648.34;4971973;28;19926;-46
2021/12/02 00:03:56;;;;;;;;;;;;;;;17.36;47.40;99645.84;4967025;28;20299;-45
2021/12/02 00:06:22;;;;;;;;;;;;;;;17.35;47.45;99649.56;4964537;28;19973;-46
2021/12/02 00:08:48;;;;;;;;;;;;;;;17.34;47.60;99648.72;4966743;28;19941;-45
2021/12/02 00:11:13;;;;;;;;;;;;;;;17.32;47.43;99648.06;4964714;28;19929;-45
2021/12/02 00:13:54;;;;;;;;;;;;;;;17.30;47.53;99660.03;4963049;28;19914;-48
2021/12/02 00:21:35;;;;;;;;;;;;;;;17.29;47.65;99677.16;4968962;28;19921;-44
2021/12/02 00:24:05;;;;;;;;;;;;;;;17.27;47.77;99692.66;4964339;28;19950;-45
2021/12/02 00:26:31;;;;;;;;;;;;;;;17.27;47.50;99695.34;4965565;29;19927;-46
2021/12/02 00:28:57;;;;;;;;;;;;;;;17.26;47.49;99691.81;4965137;28;20260;-45
2021/12/02 00:31:24;;;;;;;;;;;;;;;17.25;47.50;99690.16;4965723;28;19921;-46
2021/12/02 00:33:54;;;;;;;;;;;;;;;17.24;47.60;99692.00;4965456;28;19914;-43
2021/12/02 00:36:20;;;;;;;;;;;;;;;17.24;47.53;99686.63;4960799;28;19958;-46
2021/12/02 00:38:46;;;;;;;;;;;;;;;17.23;47.39;99687.63;4960701;29;19914;-48
2021/12/02 00:41:12;;;;;;;;;;;;;;;17.25;47.38;99690.16;4965604;29;19914;-49
2021/12/02 00:43:38;;;;;;;;;;;;;;;17.25;47.45;99692.84;4965020;28;19921;-45
2021/12/02 00:46:08;;;;;;;;;;;;;;;17.25;47.44;99695.53;4965407;29;19926;-51
2021/12/02 00:48:33;;;;;;;;;;;;;;;17.24;47.38;99685.78;4964112;29;19915;-45
2021/12/02 00:50:58;;;;;;;;;;;;;;;17.23;47.28;99684.97;4965750;28;20354;-45
2021/12/02 00:53:23;;;;;;;;;;;;;;;17.23;47.28;99697.56;4973661;28;19927;-44
2021/12/02 00:55:48;;;;;;;;;;;;;;;17.24;47.18;99691.16;4964103;29;19915;-45
2021/12/02 00:58:20;;;;;;;;;;;;;;;17.22;47.45;99696.72;4964272;29;19961;-45
2021/12/02 01:00:49;;;;;;;;;;;;;;;17.23;47.37;99698.38;4964522;28;20401;-46
2021/12/02 01:03:14;;;;;;;;;;;;;;;17.23;47.20;99694.88;4967404;28;19925;-45
2021/12/02 01:05:40;;;;;;;;;;;;;;;17.22;47.18;99693.22;4969350;28;19922;-46
2021/12/02 01:08:05;;;;;;;;;;;;;;;17.22;47.31;99696.72;4968476;28;19914;-45
2021/12/02 01:10:30;;;;;;;;;;;;;;;17.21;47.23;99695.06;4969050;29;19922;-48
2021/12/02 01:12:56;;;;;;;;;;;;;;;17.22;47.34;99698.59;4968152;29;20363;-46
2021/12/02 01:15:21;;;;;;;;;;;;;;;17.21;47.08;99700.44;4982012;28;19921;-46
2021/12/02 01:17:46;;;;;;;;;;;;;;;17.20;47.23;99704.16;4969052;28;20287;-48
2021/12/02 01:20:12;;;;;;;;;;;;;;;17.18;47.24;99705.34;4969220;29;19914;-44
2021/12/02 01:22:37;;;;;;;;;;;;;;;17.18;47.30;99697.28;4970072;28;19966;-46
2021/12/02 01:25:03;;;;;;;;;;;;;;;17.17;47.23;99706.38;4968784;28;19914;-45
2021/12/02 01:27:28;;;;;;;;;;;;;;;17.16;47.15;99710.06;4969056;29;19930;-46
2021/12/02 01:29:53;;;;;;;;;;;;;;;17.15;47.10;99709.22;4968218;28;19918;-46
2021/12/02 01:32:18;;;;;;;;;;;;;;;17.15;47.10;99703.03;4968864;29;20000;-45
2021/12/02 01:34:45;;;;;;;;;;;;;;;17.13;47.03;99697.03;4967226;29;19945;-46
2021/12/02 01:37:11;;;;;;;;;;;;;;;17.11;47.19;99697.19;4968987;28;19923;-43
2021/12/02 01:39:36;;;;;;;;;;;;;;;17.10;47.27;99705.44;4968653;28;19937;-43
2021/12/02 01:42:01;;;;;;;;;;;;;;;17.09;47.30;99707.31;4951629;29;19940;-47
2021/12/02 01:44:27;;;;;;;;;;;;;;;17.08;47.24;99710.19;4966856;29;19914;-45
2021/12/02 01:46:54;;;;;;;;;;;;;;;17.06;47.32;99704.97;4967045;29;19961;-44
2021/12/02 01:49:21;;;;;;;;;;;;;;;17.05;47.16;99697.13;4968647;28;19919;-46
2021/12/02 01:51:47;;;;;;;;;;;;;;;17.04;47.24;99706.19;4968959;28;19914;-45
2021/12/02 01:54:20;;;;;;;;;;;;;;;17.02;47.37;99705.53;4968590;28;19938;-46
2021/12/02 01:56:47;;;;;;;;;;;;;;;17.00;47.17;99705.72;4967183;29;19914;-47
2021/12/02 01:59:35;;;;;;;;;;;;;;;16.98;47.35;99697.84;4967991;29;19921;-46
2021/12/02 02:02:01;;;;;;;;;;;;;;;16.98;47.22;99699.69;4975081;28;19918;-45
2021/12/02 02:04:26;;;;;;;;;;;;;;;16.97;47.41;99703.41;4968196;29;19914;-49
2021/12/02 02:06:53;;;;;;;;;;;;;;;16.96;47.30;99709.81;4968144;28;19940;-49
2021/12/02 02:09:18;;;;;;;;;;;;;;;16.96;47.30;99710.63;4966883;29;19947;-47
2021/12/02 02:11:43;;;;;;;;;;;;;;;16.95;47.41;99718.88;4968128;28;19915;-45
2021/12/02 02:14:09;;;;;;;;;;;;;;;16.93;47.40;99716.38;4972639;28;19964;-44
2021/12/02 02:16:36;;;;;;;;;;;;;;;16.93;47.19;99718.22;4975995;28;19938;-47
2021/12/02 02:19:01;;;;;;;;;;;;;;;16.92;47.20;99711.19;4967933;28;19919;-46
2021/12/02 02:21:27;;;;;;;;;;;;;;;16.91;47.18;99702.31;4968525;28;19921;-43
2021/12/02 02:23:57;;;;;;;;;;;;;;;16.91;47.10;99709.53;4969808;28;19926;-47
2021/12/02 02:26:26;;;;;;;;;;;;;;;16.90;47.30;99708.66;4967822;28;19927;-47
2021/12/02 02:28:51;;;;;;;;;;;;;;;16.90;47.40;99718.59;4967249;28;19925;-46
2021/12/02 02:31:17;;;;;;;;;;;;;;;16.88;47.20;99708.03;4967677;29;19914;-49
2021/12/02 02:33:43;;;;;;;;;;;;;;;16.87;47.25;99714.44;4967689;29;19922;-48
2021/12/02 02:36:08;;;;;;;;;;;;;;;16.86;47.44;99712.75;4967498;28;19923;-47
2021/12/02 02:38:35;;;;;;;;;;;;;;;16.85;47.37;99705.72;4967551;28;19919;-45
2021/12/02 02:41:02;;;;;;;;;;;;;;;16.84;47.19;99708.59;4967706;28;19915;-45
2021/12/02 02:43:27;;;;;;;;;;;;;;;16.82;47.24;99714.16;4967832;28;19942;-48
2021/12/02 02:45:53;;;;;;;;;;;;;;;16.82;47.31;99713.28;4966889;28;19922;-46
2021/12/02 02:48:18;;;;;;;;;;;;;;;16.81;47.27;99712.47;4967342;28;19918;-47
2021/12/02 02:50:43;;;;;;;;;;;;;;;16.80;47.41;99709.97;4967682;28;20495;-44
2021/12/02 02:53:15;;;;;;;;;;;;;;;16.78;47.40;99712.84;4966389;28;19953;-45
2021/12/02 02:55:42;;;;;;;;;;;;;;;16.78;47.25;99722.72;4967240;28;19926;-45
2021/12/02 02:58:23;;;;;;;;;;;;;;;16.78;47.45;99730.78;4966447;29;19914;-45
2021/12/02 03:01:11;;;;;;;;;;;;;;;16.77;47.21;99731.81;4953449;29;19915;-45
2021/12/02 03:03:54;;;;;;;;;;;;;;;16.75;47.29;99740.06;4966168;29;19922;-46
2021/12/02 03:06:36;;;;;;;;;;;;;;;16.73;47.41;99739.38;4967236;28;20008;-48
2021/12/02 03:09:05;;;;;;;;;;;;;;;16.72;47.44;99743.06;4974692;28;19925;-44
2021/12/02 03:11:39;;;;;;;;;;;;;;;16.71;47.40;99746.78;4966962;28;20303;-47
2021/12/02 03:14:10;;;;;;;;;;;;;;;16.69;47.31;99736.22;4965582;29;19914;-45
2021/12/02 03:16:45;;;;;;;;;;;;;;;16.69;47.37;99732.69;4967041;28;19914;-48
2021/12/02 03:19:30;;;;;;;;;;;;;;;16.68;47.39;99729.16;4966829;28;19918;-48
2021/12/02 03:21:56;;;;;;;;;;;;;;;16.68;47.44;99731.84;4959165;29;20380;-46
2021/12/02 03:24:21;;;;;;;;;;;;;;;16.67;47.29;99729.38;4966548;28;19919;-45
2021/12/02 03:26:47;;;;;;;;;;;;;;;16.67;47.42;99726.69;4966158;28;19924;-51
2021/12/02 03:29:12;;;;;;;;;;;;;;;16.66;47.35;99730.38;4966152;28;19938;-47
2021/12/02 03:31:37;;;;;;;;;;;;;;;16.65;47.37;99729.56;4966638;28;19915;-48
2021/12/02 03:34:04;;;;;;;;;;;;;;;16.65;47.39;99728.69;4966462;29;19921;-49
2021/12/02 03:36:29;;;;;;;;;;;;;;;16.64;47.26;99717.13;4966402;29;20604;-45
2021/12/02 03:38:54;;;;;;;;;;;;;;;16.63;47.40;99715.47;4966617;28;19914;-44
2021/12/02 03:41:19;;;;;;;;;;;;;;;16.64;47.04;99721.66;4966288;28;19914;-44
2021/12/02 03:43:46;;;;;;;;;;;;;;;16.62;47.26;99712.97;4964945;29;19918;-45
2021/12/02 03:46:12;;;;;;;;;;;;;;;16.61;47.25;99712.16;4965072;29;19934;-46
2021/12/02 03:48:38;;;;;;;;;;;;;;;16.61;47.33;99720.19;4966571;28;20515;-46
2021/12/02 03:51:04;;;;;;;;;;;;;;;16.62;47.35;99737.13;4966775;28;19978;-47
2021/12/02 03:53:29;;;;;;;;;;;;;;;16.61;47.28;99728.25;4966419;28;19918;-46
2021/12/02 03:55:54;;;;;;;;;;;;;;;16.61;47.36;99730.06;4966151;29;19937;-43
2021/12/02 03:58:19;;;;;;;;;;;;;;;16.60;47.37;99734.59;4966330;28;19934;-45
2021/12/02 04:00:44;;;;;;;;;;;;;;;16.60;47.26;99729.25;4965484;28;19918;-45
2021/12/02 04:03:09;;;;;;;;;;;;;;;16.59;47.24;99721.38;4965875;28;19946;-45
2021/12/02 04:05:34;;;;;;;;;;;;;;;16.58;47.38;99720.56;4966249;28;19943;-50
2021/12/02 04:08:00;;;;;;;;;;;;;;;16.57;47.37;99726.94;4964935;29;19922;-48
2021/12/02 04:10:25;;;;;;;;;;;;;;;16.57;47.28;99726.94;4966003;28;19915;-45
2021/12/02 04:15:25;;;;;;;;;;;;;;;16.55;47.40;99707.50;4965637;28;19958;-46
2021/12/02 04:17:51;;;;;;;;;;;;;;;16.55;47.23;99712.03;4965829;28;19993;-49
2021/12/02 04:20:17;;;;;;;;;;;;;;;16.54;47.20;99713.88;4967814;28;20327;-47
2021/12/02 04:22:42;;;;;;;;;;;;;;;16.53;47.31;99706.84;4966018;28;20411;-48
2021/12/02 04:25:08;;;;;;;;;;;;;;;16.53;47.33;99714.09;4965635;28;19922;-48
2021/12/02 04:27:33;;;;;;;;;;;;;;;16.50;47.29;99710.72;4965941;28;19933;-47
2021/12/02 04:29:59;;;;;;;;;;;;;;;16.49;47.32;99711.75;4965012;28;19922;-45
2021/12/02 04:32:24;;;;;;;;;;;;;;;16.49;47.30;99719.81;4965945;28;19929;-44
2021/12/02 04:34:49;;;;;;;;;;;;;;;16.48;47.29;99723.50;4965471;28;19933;-47
2021/12/02 04:37:14;;;;;;;;;;;;;;;16.49;47.25;99727.03;4965597;28;19977;-46
2021/12/02 04:39:39;;;;;;;;;;;;;;;16.48;47.40;99726.19;4965594;28;19921;-48
2021/12/02 04:42:04;;;;;;;;;;;;;;;16.47;47.32;99735.22;4965750;29;19929;-46
2021/12/02 04:44:30;;;;;;;;;;;;;;;16.47;47.32;99740.59;4965251;28;20356;-44
2021/12/02 04:46:55;;;;;;;;;;;;;;;16.46;47.21;99751.53;4965288;28;19925;-46
2021/12/02 04:49:20;;;;;;;;;;;;;;;16.45;47.22;99750.69;4965537;28;19924;-46
2021/12/02 04:51:45;;;;;;;;;;;;;;;16.45;47.21;99755.22;4972769;28;19923;-51
2021/12/02 04:54:10;;;;;;;;;;;;;;;16.44;47.29;99751.72;4965405;29;19918;-48
2021/12/02 04:56:37;;;;;;;;;;;;;;;16.44;47.41;99758.94;4965410;28;19922;-46
2021/12/02 04:59:02;;;;;;;;;;;;;;;16.43;47.17;99752.69;4964901;28;19921;-49
2021/12/02 05:01:27;;;;;;;;;;;;;;;16.41;47.22;99751.22;4972374;28;19914;-49
2021/12/02 05:03:52;;;;;;;;;;;;;;;16.41;47.34;99759.28;4971744;28;19914;-47
2021/12/02 05:06:17;;;;;;;;;;;;;;;16.40;47.28;99766.50;4970337;28;19918;-48
2021/12/02 05:08:43;;;;;;;;;;;;;;;16.40;47.22;99776.41;4974130;28;19922;-47
2021/12/02 05:11:08;;;;;;;;;;;;;;;16.40;47.12;99776.41;4965221;29;19954;-45
2021/12/02 05:13:33;;;;;;;;;;;;;;;16.39;47.31;99786.25;4965667;28;19945;-44
2021/12/02 05:15:58;;;;;;;;;;;;;;;16.39;47.17;99796.16;4963585;29;19915;-49
2021/12/02 05:18:23;;;;;;;;;;;;;;;16.39;47.17;99802.34;4964934;28;19953;-50
2021/12/02 05:20:48;;;;;;;;;;;;;;;16.39;47.06;99794.31;4965859;28;19918;-47
2021/12/02 05:23:14;;;;;;;;;;;;;;;16.38;47.23;99789.13;4966647;28;19954;-47
2021/12/02 05:25:43;;;;;;;;;;;;;;;16.38;47.08;99799.88;4964786;28;19918;-45
2021/12/02 05:28:08;;;;;;;;;;;;;;;16.37;47.14;99793.66;4965146;28;19921;-48
2021/12/02 05:30:33;;;;;;;;;;;;;;;16.37;47.23;99804.41;4964338;28;19923;-46
2021/12/02 05:32:59;;;;;;;;;;;;;;;16.37;47.23;99806.25;4964932;28;19918;-47
2021/12/02 05:35:24;;;;;;;;;;;;;;;16.36;47.24;99801.91;4964980;28;19973;-45
2021/12/02 05:37:49;;;;;;;;;;;;;;;16.36;47.26;99802.75;4965299;28;19937;-49
2021/12/02 05:40:14;;;;;;;;;;;;;;;16.36;47.20;99792.00;4967351;28;20494;-44
2021/12/02 05:42:39;;;;;;;;;;;;;;;16.38;47.16;99799.88;4966570;28;19942;-46
2021/12/02 05:45:05;;;;;;;;;;;;;;;16.38;47.26;99786.47;4970811;28;19914;-48
2021/12/02 05:47:30;;;;;;;;;;;;;;;16.37;47.19;99785.63;4970531;28;20001;-46
2021/12/02 05:49:55;;;;;;;;;;;;;;;16.38;47.17;99789.13;4973574;28;19927;-45
2021/12/02 05:52:20;;;;;;;;;;;;;;;16.37;47.36;99791.00;4973850;28;19922;-47
2021/12/02 05:54:45;;;;;;;;;;;;;;;16.37;47.18;99799.03;4969893;28;19921;-46
2021/12/02 05:57:10;;;;;;;;;;;;;;;16.38;47.29;99792.66;4971335;28;19919;-46
2021/12/02 05:59:36;;;;;;;;;;;;;;;16.38;47.38;99805.22;4967605;28;19915;-48
2021/12/02 06:02:01;;;;;;;;;;;;;;;16.38;47.16;99802.56;4968336;28;19921;-51
2021/12/02 06:04:26;;;;;;;;;;;;;;;16.37;47.45;99801.72;4968184;28;19949;-49
2021/12/02 06:06:51;;;;;;;;;;;;;;;16.38;47.50;99795.34;4968040;28;19922;-44
2021/12/02 06:09:18;;;;;;;;;;;;;;;16.38;47.35;99802.56;4968142;28;19921;-47
2021/12/02 06:11:44;;;;;;;;;;;;;;;16.37;47.42;99804.41;4968184;28;19953;-46
2021/12/02 06:14:09;;;;;;;;;;;;;;;16.37;47.56;99791.00;4970040;28;19914;-47
2021/12/02 06:16:34;;;;;;;;;;;;;;;16.38;47.44;99794.50;4966532;28;19926;-48
2021/12/02 06:18:59;;;;;;;;;;;;;;;16.38;47.56;99803.38;4970194;28;20013;-45
2021/12/02 06:21:25;;;;;;;;;;;;;;;16.39;47.59;99802.34;4964899;28;19918;-45
2021/12/02 06:23:50;;;;;;;;;;;;;;;16.39;47.51;99804.22;4958562;29;20188;-47
2021/12/02 06:26:15;;;;;;;;;;;;;;;16.38;47.57;99811.44;4968590;28;19982;-47
2021/12/02 06:28:40;;;;;;;;;;;;;;;16.38;47.56;99813.28;4970065;28;19948;-45
2021/12/02 06:31:06;;;;;;;;;;;;;;;16.37;47.56;99819.66;4970782;28;19914;-49
2021/12/02 06:33:31;;;;;;;;;;;;;;;16.37;47.64;99815.13;4974765;28;19925;-45
2021/12/02 06:35:57;;;;;;;;;;;;;;;16.37;47.80;99817.00;4969942;28;19922;-46
2021/12/02 06:38:22;;;;;;;;;;;;;;;16.36;47.71;99821.53;4970761;28;20408;-48
2021/12/02 06:40:47;;;;;;;;;;;;;;;16.37;47.71;99817.00;4967600;28;19915;-45
2021/12/02 06:43:14;;;;;;;;;;;;;;;16.37;47.76;99820.50;4967148;28;19918;-45
2021/12/02 06:45:39;;;;;;;;;;;;;;;16.36;47.70;99816.16;4966483;28;19923;-47
2021/12/02 06:48:05;;;;;;;;;;;;;;;16.36;47.84;99813.47;4965719;28;20001;-48
2021/12/02 06:50:32;;;;;;;;;;;;;;;16.36;47.74;99818.84;4967278;29;19910;-48
2021/12/02 06:52:57;;;;;;;;;;;;;;;16.36;48.04;99816.16;4965135;28;19925;-46
2021/12/02 06:55:22;;;;;;;;;;;;;;;16.36;47.91;99818.84;4964003;29;19915;-45
2021/12/02 06:57:47;;;;;;;;;;;;;;;16.37;47.84;99825.88;4966922;28;19968;-49
2021/12/02 07:00:14;;;;;;;;;;;;;;;16.37;47.94;99831.22;4962124;28;20463;-48
2021/12/02 07:02:39;;;;;;;;;;;;;;;16.38;47.89;99832.06;4967099;28;19958;-46
2021/12/02 07:05:05;;;;;;;;;;;;;;;16.38;47.83;99834.75;4966562;28;19914;-46
2021/12/02 07:07:34;;;;;;;;;;;;;;;16.37;47.84;99833.91;4965235;29;20541;-48
2021/12/02 07:10:00;;;;;;;;;;;;;;;16.38;47.98;99834.75;4966311;28;19921;-46
2021/12/02 07:12:30;;;;;;;;;;;;;;;16.38;47.90;99846.31;4966625;29;19914;-48
2021/12/02 07:14:57;;;;;;;;;;;;;;;16.37;47.94;99855.38;4965964;28;19924;-49
2021/12/02 07:17:23;;;;;;;;;;;;;;;16.38;47.97;99857.03;4966636;28;19914;-48
2021/12/02 07:19:48;;;;;;;;;;;;;;;16.38;47.96;99851.66;4953470;29;19915;-47
2021/12/02 07:22:13;;;;;;;;;;;;;;;16.40;47.90;99854.19;4958099;29;20405;-50
2021/12/02 07:24:38;;;;;;;;;;;;;;;16.44;47.87;99860.88;4960840;29;19915;-49
2021/12/02 07:27:03;;;;;;;;;;;;;;;16.46;47.95;99870.41;4954941;29;19961;-47
2021/12/02 07:29:29;;;;;;;;;;;;;;;16.50;47.77;99876.25;4963571;29;19969;-44
2021/12/02 07:31:54;;;;;;;;;;;;;;;16.52;47.88;99879.56;4963912;28;19921;-48
2021/12/02 07:34:20;;;;;;;;;;;;;;;16.54;47.67;99882.09;4956916;28;20327;-47
2021/12/02 07:36:45;;;;;;;;;;;;;;;16.46;47.67;99865.03;4963436;28;19919;-47
2021/12/02 07:39:10;;;;;;;;;;;;;;;16.58;47.67;99878.88;4964266;28;19922;-45
2021/12/02 07:41:36;;;;;;;;;;;;;;;16.60;47.45;99884.88;4962606;28;19998;-50
2021/12/02 07:44:01;;;;;;;;;;;;;;;16.60;47.40;99878.69;4963548;28;20396;-45
2021/12/02 07:46:26;;;;;;;;;;;;;;;16.61;47.44;99883.03;4964278;28;19958;-45
2021/12/02 07:48:52;;;;;;;;;;;;;;;16.62;47.47;99885.56;4964017;28;19921;-51
2021/12/02 07:51:18;;;;;;;;;;;;;;;16.64;47.29;99885.38;4967116;28;20276;-42
2021/12/02 07:53:44;;;;;;;;;;;;;;;16.65;47.28;99895.09;4964435;28;19925;-48
2021/12/02 07:56:10;;;;;;;;;;;;;;;16.66;47.40;99894.94;4962774;28;19925;-47
2021/12/02 07:58:35;;;;;;;;;;;;;;;16.68;47.34;99902.78;4964311;28;20327;-46
2021/12/02 08:01:01;;;;;;;;;;;;;;;16.70;47.59;99909.66;4965154;28;19918;-48
2021/12/02 08:03:26;;;;;;;;;;;;;;;16.73;47.37;99916.53;4964376;28;19918;-45
2021/12/02 08:05:52;;;;;;;;;;;;;;;16.75;47.54;99914.53;4964067;28;19919;-47
2021/12/02 08:08:17;;;;;;;;;;;;;;;16.78;47.38;99921.38;4964349;28;19918;-50
2021/12/02 08:10:42;;;;;;;;;;;;;;;16.81;47.32;99915.66;4963330;28;19914;-50
2021/12/02 08:13:07;;;;;;;;;;;;;;;16.85;47.38;99925.00;4963557;28;19914;-42
2021/12/02 08:15:33;;;;;;;;;;;;;;;16.89;47.40;99923.66;4966876;28;19965;-47
2021/12/02 08:17:58;;;;;;;;;;;;;;;16.93;47.21;99922.28;4964034;28;19922;-46
2021/12/02 08:20:24;;;;;;;;;;;;;;;16.95;47.02;99926.47;4964224;28;19970;-46
2021/12/02 08:22:50;;;;;;;;;;;;;;;16.99;46.92;99933.16;4962937;28;19922;-48
2021/12/02 08:25:15;;;;;;;;;;;;;;;17.04;46.78;99935.28;4963686;28;19919;-45
2021/12/02 08:27:41;;;;;;;;;;;;;;;17.13;46.87;99947.63;4960958;28;19926;-44
2021/12/02 08:30:06;;;;;;;;;;;;;;;17.25;46.53;99937.31;4961522;28;20060;-51
2021/12/02 08:32:31;;;;;;;;;;;;;;;17.45;46.22;99937.59;4963088;28;19982;-45
2021/12/02 08:34:59;;;;;;;;;;;;;;;17.68;45.74;99941.06;4962526;28;20017;-49
2021/12/02 08:37:26;;;;;;;;;;;;;;;17.81;45.25;99950.41;4962494;28;19946;-48
2021/12/02 08:39:51;;;;;;;;;;;;;;;17.82;44.94;99952.06;4963241;28;19924;-46
2021/12/02 08:42:18;;;;;;;;;;;;;;;17.78;44.97;99956.13;4963195;28;20398;-48
2021/12/02 08:44:44;;;;;;;;;;;;;;;17.68;45.26;99962.59;4963379;28;19918;-47
2021/12/02 08:47:10;;;;;;;;;;;;;;;17.62;45.35;99975.91;4966763;28;20008;-50
2021/12/02 08:49:36;;;;;;;;;;;;;;;17.53;45.49;99977.00;4965880;28;19989;-46
2021/12/02 08:52:01;;;;;;;;;;;;;;;17.45;45.48;99978.75;4962914;28;20490;-44
2021/12/02 08:54:26;;;;;;;;;;;;;;;17.39;45.79;99989.41;4963552;28;19953;-46
2021/12/02 08:56:54;;;;;;;;;;;;;;;17.35;45.86;99972.78;4963469;28;20360;-47
2021/12/02 08:59:19;;;;;;;;;;;;;;;17.33;45.95;99973.97;4963117;28;19941;-48
2021/12/02 09:01:44;;;;;;;;;;;;;;;17.32;46.01;99983.06;4962765;28;20367;-47
2021/12/02 09:04:10;;;;;;;;;;;;;;;17.31;45.91;99982.25;4962957;28;19918;-51
2021/12/02 09:06:35;;;;;;;;;;;;;;;17.35;45.85;99980.84;4963460;28;20034;-46
2021/12/02 09:09:00;;;;;;;;;;;;;;;17.39;45.99;99979.47;4963546;28;19922;-46
2021/12/02 09:11:26;;;;;;;;;;;;;;;17.45;45.92;99980.59;4962707;28;20013;-50
2021/12/02 09:13:56;;;;;;;;;;;;;;;17.53;45.71;99982.38;4963002;28;19922;-49
2021/12/02 09:16:21;;;;;;;;;;;;;;;17.59;45.72;99987.06;4963186;28;19918;-51
2021/12/02 09:18:47;;;;;;;;;;;;;;;17.61;45.56;99993.91;4963495;28;20016;-46
2021/12/02 09:21:12;;;;;;;;;;;;;;;17.63;45.38;100004.47;4965383;28;19918;-54
2021/12/02 09:23:37;;;;;;;;;;;;;;;17.61;45.46;100009.19;4960809;28;19915;-45
2021/12/02 09:26:02;;;;;;;;;;;;;;;17.61;45.39;100009.19;4965011;28;19922;-44
2021/12/02 09:28:28;;;;;;;;;;;;;;;17.59;45.48;100009.38;4965002;28;20062;-46
2021/12/02 09:30:53;;;;;;;;;;;;;;;17.57;45.49;100008.72;4965880;28;20364;-46
2021/12/02 09:33:18;;;;;;;;;;;;;;;17.55;45.60;100013.44;4965493;28;19925;-43
2021/12/02 09:35:44;;;;;;;;;;;;;;;17.54;45.67;100019.81;4966822;28;19930;-46
2021/12/02 09:38:10;;;;;;;;;;;;;;;17.53;45.72;100022.69;4967070;28;20283;-46
2021/12/02 09:40:35;;;;;;;;;;;;;;;17.53;45.51;100020.00;4965567;28;19922;-50
2021/12/02 09:43:01;;;;;;;;;;;;;;;17.51;45.61;100020.19;4965633;28;20078;-50
2021/12/02 09:45:26;;;;;;;;;;;;;;;17.51;45.66;100022.06;4965802;28;19919;-48
2021/12/02 09:47:52;;;;;;;;;;;;;;;17.52;45.57;100023.72;4972469;28;19926;-52
2021/12/02 09:50:25;;;;;;;;;;;;;;;17.51;45.66;100038.19;4968759;28;19914;-45
2021/12/02 09:52:51;;;;;;;;;;;;;;;17.50;45.75;100031.97;4965803;28;20354;-50
2021/12/02 09:55:32;;;;;;;;;;;;;;;17.50;45.82;100040.03;4966450;28;19946;-50
2021/12/02 09:57:59;;;;;;;;;;;;;;;17.51;45.69;100044.38;4965976;28;19958;-47
2021/12/02 10:00:36;;;;;;;;;;;;;;;17.55;45.75;100039.50;4965441;28;19926;-44
2021/12/02 10:03:05;;;;;;;;;;;;;;;17.57;45.46;100046.34;4965713;28;19933;-45
2021/12/02 10:05:56;;;;;;;;;;;;;;;17.61;45.38;100044.97;4966227;28;19964;-47
2021/12/02 10:08:23;;;;;;;;;;;;;;;17.65;45.50;100042.75;4963708;28;20074;-48
2021/12/02 10:10:53;;;;;;;;;;;;;;;17.73;45.42;100040.00;4963388;28;19923;-46
2021/12/02 10:13:29;;;;;;;;;;;;;;;17.79;45.35;100046.53;4965539;28;20386;-47
2021/12/02 10:16:04;;;;;;;;;;;;;;;17.83;45.21;100048.66;4965533;28;19941;-48
2021/12/02 10:18:49;;;;;;;;;;;;;;;17.88;44.96;100050.81;4966245;28;19918;-43
2021/12/02 10:21:19;;;;;;;;;;;;;;;17.91;45.07;100043.22;4969321;28;19919;-44
2021/12/02 10:23:47;;;;;;;;;;;;;;;17.95;44.94;100051.75;4966986;28;19914;-47
2021/12/02 10:26:13;;;;;;;;;;;;;;;17.96;44.83;100059.63;4961154;28;19982;-43
2021/12/02 10:28:42;;;;;;;;;;;;;;;18.01;44.83;100055.56;4961965;28;19918;-46
2021/12/02 10:31:08;;;;;;;;;;;;;;;18.03;44.71;100048.16;4962345;28;20298;-52
2021/12/02 10:33:34;;;;;;;;;;;;;;;18.06;44.52;100055.88;4964846;28;19982;-46
2021/12/02 10:36:00;;;;;;;;;;;;;;;18.10;44.38;100057.16;4964372;28;20017;-51
2021/12/02 10:38:36;;;;;;;;;;;;;;;18.14;44.51;100061.16;4963918;28;19966;-49
2021/12/02 10:41:09;;;;;;;;;;;;;;;18.17;44.42;100060.78;4964447;28;19922;-50
2021/12/02 10:43:34;;;;;;;;;;;;;;;18.15;44.40;100060.97;4966725;28;20385;-46
2021/12/02 10:46:12;;;;;;;;;;;;;;;18.15;44.21;100057.44;4966688;28;19999;-45
2021/12/02 10:48:44;;;;;;;;;;;;;;;18.13;44.23;100059.47;4964204;28;19925;-44
2021/12/02 10:51:10;;;;;;;;;;;;;;;18.11;44.43;100066.91;4972775;28;19923;-45
2021/12/02 10:53:35;;;;;;;;;;;;;;;18.11;44.56;100064.22;4965266;28;19989;-46
2021/12/02 10:56:01;;;;;;;;;;;;;;;18.10;44.29;100062.56;4961740;28;19965;-49
2021/12/02 10:58:32;;;;;;;;;;;;;;;18.10;44.30;100054.47;4964474;28;19919;-51
2021/12/02 11:00:57;;;;;;;;;;;;;;;18.10;44.54;100062.56;4963651;28;19946;-46
2021/12/02 11:03:23;;;;;;;;;;;;;;;18.09;44.34;100069.75;4963115;28;19914;-48
2021/12/02 11:05:49;;;;;;;;;;;;;;;18.07;44.46;100071.81;4963388;28;19926;-47
2021/12/02 11:08:15;;;;;;;;;;;;;;;18.06;44.27;100086.28;4964690;28;19921;-48
2021/12/02 11:10:42;;;;;;;;;;;;;;;18.05;44.50;100086.44;4966327;28;19934;-53
2021/12/02 11:13:08;;;;;;;;;;;;;;;18.08;44.44;100100.38;4963834;28;19966;-50
2021/12/02 11:15:34;;;;;;;;;;;;;;;18.13;44.41;100105.19;4960590;28;19914;-48
2021/12/02 11:18:01;;;;;;;;;;;;;;;18.16;44.41;100108.38;4964700;28;19926;-52
2021/12/02 11:20:36;;;;;;;;;;;;;;;18.18;44.15;100103.66;4961611;28;19926;-50
2021/12/02 11:23:06;;;;;;;;;;;;;;;18.19;44.19;100097.25;4962361;28;19923;-52
2021/12/02 11:25:32;;;;;;;;;;;;;;;18.20;44.02;100098.91;4963974;28;19914;-52
2021/12/02 11:28:02;;;;;;;;;;;;;;;18.18;44.25;100105.47;4964928;28;19922;-51
2021/12/02 11:30:28;;;;;;;;;;;;;;;18.18;44.67;100110.88;4963091;28;19915;-52
2021/12/02 11:32:56;;;;;;;;;;;;;;;18.15;44.22;100106.69;4963557;28;19925;-52
2021/12/02 11:35:25;;;;;;;;;;;;;;;18.15;44.55;100103.19;4899336;28;1721064;-49
2021/12/02 11:37:51;;;;;;;;;;;;;;;18.15;44.67;100106.69;4964873;28;19925;-42
2021/12/02 11:40:25;;;;;;;;;;;;;;;18.16;44.76;100116.44;4965091;28;19914;-45
2021/12/02 11:42:51;;;;;;;;;;;;;;;18.18;44.65;100122.50;4961196;28;19919;-45
2021/12/02 11:45:17;;;;;;;;;;;;;;;18.21;44.71;100123.97;4964345;28;19921;-47
2021/12/02 11:47:42;;;;;;;;;;;;;;;18.24;44.82;100124.44;4963550;28;19926;-49
2021/12/02 11:50:08;;;;;;;;;;;;;;;18.30;44.46;100133.63;4964515;28;20526;-46
2021/12/02 11:52:35;;;;;;;;;;;;;;;18.29;44.60;100123.88;4964824;28;19922;-47
2021/12/02 11:55:01;;;;;;;;;;;;;;;18.33;44.48;100135.13;4963289;28;19914;-49
2021/12/02 11:57:27;;;;;;;;;;;;;;;18.38;44.64;100127.31;4964465;28;19997;-47
2021/12/02 11:59:52;;;;;;;;;;;;;;;18.44;44.52;100132.00;4963932;28;19956;-46
2021/12/02 12:02:17;;;;;;;;;;;;;;;18.48;44.21;100135.97;4963612;28;19914;-45
2021/12/02 12:04:51;;;;;;;;;;;;;;;18.50;44.15;100150.06;4962902;28;19941;-47
2021/12/02 12:07:16;;;;;;;;;;;;;;;18.48;44.37;100177.19;4965490;28;19930;-50
2021/12/02 12:09:41;;;;;;;;;;;;;;;18.44;44.31;100194.72;4967608;28;19918;-47
2021/12/02 12:12:07;;;;;;;;;;;;;;;18.39;44.59;100164.84;4962536;28;19946;-43
2021/12/02 12:14:41;;;;;;;;;;;;;;;18.32;44.71;100163.88;4962478;28;19986;-47
2021/12/02 12:17:10;;;;;;;;;;;;;;;18.29;45.02;100166.09;4961801;28;19964;-52
2021/12/02 12:19:40;;;;;;;;;;;;;;;18.26;44.87;100178.06;4963462;28;19955;-48
2021/12/02 12:22:06;;;;;;;;;;;;;;;18.25;45.28;100181.78;4962978;28;19915;-51
2021/12/02 12:24:37;;;;;;;;;;;;;;;18.26;44.88;100178.06;4963900;28;19977;-49
2021/12/02 12:27:11;;;;;;;;;;;;;;;18.26;45.22;100180.75;4963664;28;19919;-42
2021/12/02 12:29:36;;;;;;;;;;;;;;;18.29;44.93;100190.31;4963131;28;19926;-46
2021/12/02 12:32:22;;;;;;;;;;;;;;;18.33;45.00;100191.63;4966068;28;19918;-49
2021/12/02 12:40:02;;;;;;;;;;;;;;;18.39;45.18;100210.59;4970497;28;20009;-43
2021/12/02 12:42:27;;;;;;;;;;;;;;;18.40;45.18;100208.72;4966382;28;19921;-48
2021/12/02 12:44:53;;;;;;;;;;;;;;;18.39;45.09;100207.91;4962492;28;19918;-48
2021/12/02 12:47:19;;;;;;;;;;;;;;;18.37;45.26;100204.53;4963809;28;19926;-47
2021/12/02 12:49:45;;;;;;;;;;;;;;;18.37;45.06;100215.31;4963501;28;19991;-50
2021/12/02 12:52:18;;;;;;;;;;;;;;;18.37;45.35;100209.91;4966131;28;19934;-48
2021/12/02 12:55:03;;;;;;;;;;;;;;;18.36;45.22;100210.94;4963617;28;19918;-48